sensor_id;sensor_type;location;lat;lon;timestamp;P1;durP1;ratioP1;P2;durP2;ratioP2
41719;SDS011;27405;53.316;-6.294;2022-10-16T00:00:32;1.60;;;1.60;;
41719;SDS011;27405;53.316;-6.294;2022-10-16T00:03:00;1.70;;;1.70;;
41719;SDS011;27405;53.316;-6.294;2022-10-16T00:05:26;1.65;;;1.65;;
41719;SDS011;27405;53.316;-6.294;2022-10-16T00:07:52;1.80;;;1.80;;
41719;SDS011;27405;53.316;-6.294;2022-10-16T00:10:18;1.50;;;1.50;;
41719;SDS011;27405;53.316;-6.294;2022-10-16T00:12:44;1.60;;;1.60;;
41719;SDS011;27405;53.316;-6.294;2022-10-16T00:15:09;1.50;;;1.50;;
41719;SDS011;27405;53.316;-6.294;2022-10-16T00:17:35;1.40;;;1.40;;
41719;SDS011;27405;53.316;-6.294;2022-10-16T00:20:01;1.75;;;1.75;;
41719;SDS011;27405;53.316;-6.294;2022-10-16T00:22:27;1.40;;;1.40;;
41719;SDS011;27405;53.316;-6.294;2022-10-16T00:24:53;1.50;;;1.50;;
41719;SDS011;27405;53.316;-6.294;2022-10-16T00:27:19;1.50;;;1.50;;
41719;SDS011;27405;53.316;-6.294;2022-10-16T00:29:49;1.73;;;1.73;;
41719;SDS011;27405;53.316;-6.294;2022-10-16T00:32:15;1.50;;;1.50;;
41719;SDS011;27405;53.316;-6.294;2022-10-16T00:34:41;1.60;;;1.60;;
41719;SDS011;27405;53.316;-6.294;2022-10-16T00:37:06;1.50;;;1.50;;
41719;SDS011;27405;53.316;-6.294;2022-10-16T00:39:32;1.40;;;1.40;;
41719;SDS011;27405;53.316;-6.294;2022-10-16T00:41:58;1.50;;;1.50;;
41719;SDS011;27405;53.316;-6.294;2022-10-16T00:47:28;1.50;;;1.50;;
41719;SDS011;27405;53.316;-6.294;2022-10-16T00:50:08;1.50;;;1.50;;
41719;SDS011;27405;53.316;-6.294;2022-10-16T00:52:37;1.52;;;1.52;;
41719;SDS011;27405;53.316;-6.294;2022-10-16T00:55:07;1.73;;;1.73;;
41719;SDS011;27405;53.316;-6.294;2022-10-16T00:57:34;2.03;;;1.92;;
41719;SDS011;27405;53.316;-6.294;2022-10-16T01:00:03;1.70;;;1.70;;
41719;SDS011;27405;53.316;-6.294;2022-10-16T01:02:30;1.80;;;1.80;;
41719;SDS011;27405;53.316;-6.294;2022-10-16T01:04:55;1.70;;;1.70;;
41719;SDS011;27405;53.316;-6.294;2022-10-16T01:12:52;1.83;;;1.83;;
41719;SDS011;27405;53.316;-6.294;2022-10-16T01:15:30;1.90;;;1.90;;
41719;SDS011;27405;53.316;-6.294;2022-10-16T01:21:00;2.75;;;2.65;;
41719;SDS011;27405;53.316;-6.294;2022-10-16T01:24:07;2.10;;;2.00;;
41719;SDS011;27405;53.316;-6.294;2022-10-16T01:32:17;1.70;;;1.70;;
41719;SDS011;27405;53.316;-6.294;2022-10-16T01:34:54;3.33;;;3.22;;
41719;SDS011;27405;53.316;-6.294;2022-10-16T01:37:51;1.77;;;1.77;;
41719;SDS011;27405;53.316;-6.294;2022-10-16T01:40:24;1.50;;;1.50;;
41719;SDS011;27405;53.316;-6.294;2022-10-16T01:42:53;2.05;;;1.95;;
41719;SDS011;27405;53.316;-6.294;2022-10-16T01:45:24;1.70;;;1.70;;
41719;SDS011;27405;53.316;-6.294;2022-10-16T01:47:50;1.60;;;1.60;;
41719;SDS011;27405;53.316;-6.294;2022-10-16T01:50:18;1.70;;;1.70;;
41719;SDS011;27405;53.316;-6.294;2022-10-16T01:52:46;1.70;;;1.70;;
41719;SDS011;27405;53.316;-6.294;2022-10-16T01:55:17;1.70;;;1.70;;
41719;SDS011;27405;53.316;-6.294;2022-10-16T01:57:52;2.22;;;2.13;;
41719;SDS011;27405;53.316;-6.294;2022-10-16T02:00:20;1.50;;;1.50;;
41719;SDS011;27405;53.316;-6.294;2022-10-16T02:02:48;2.05;;;1.95;;
41719;SDS011;27405;53.316;-6.294;2022-10-16T02:07:42;1.60;;;1.60;;
41719;SDS011;27405;53.316;-6.294;2022-10-16T02:10:08;1.60;;;1.60;;
41719;SDS011;27405;53.316;-6.294;2022-10-16T02:12:35;1.60;;;1.60;;
41719;SDS011;27405;53.316;-6.294;2022-10-16T02:15:06;1.50;;;1.50;;
41719;SDS011;27405;53.316;-6.294;2022-10-16T02:17:32;1.55;;;1.55;;
41719;SDS011;27405;53.316;-6.294;2022-10-16T02:19:57;3.50;;;3.28;;
41719;SDS011;27405;53.316;-6.294;2022-10-16T02:28:06;1.50;;;1.50;;
41719;SDS011;27405;53.316;-6.294;2022-10-16T02:30:43;1.50;;;1.50;;
41719;SDS011;27405;53.316;-6.294;2022-10-16T02:33:14;1.80;;;1.80;;
41719;SDS011;27405;53.316;-6.294;2022-10-16T02:35:41;1.50;;;1.50;;
41719;SDS011;27405;53.316;-6.294;2022-10-16T02:38:10;1.50;;;1.50;;
41719;SDS011;27405;53.316;-6.294;2022-10-16T02:40:36;2.17;;;2.08;;
41719;SDS011;27405;53.316;-6.294;2022-10-16T02:43:03;1.85;;;1.85;;
41719;SDS011;27405;53.316;-6.294;2022-10-16T02:45:29;1.40;;;1.40;;
41719;SDS011;27405;53.316;-6.294;2022-10-16T02:47:56;1.60;;;1.60;;
41719;SDS011;27405;53.316;-6.294;2022-10-16T02:50:21;1.50;;;1.50;;
41719;SDS011;27405;53.316;-6.294;2022-10-16T02:52:47;1.50;;;1.50;;
41719;SDS011;27405;53.316;-6.294;2022-10-16T02:55:13;1.50;;;1.50;;
41719;SDS011;27405;53.316;-6.294;2022-10-16T02:57:39;1.40;;;1.40;;
41719;SDS011;27405;53.316;-6.294;2022-10-16T03:00:06;1.50;;;1.50;;
41719;SDS011;27405;53.316;-6.294;2022-10-16T03:02:36;1.50;;;1.50;;
41719;SDS011;27405;53.316;-6.294;2022-10-16T03:05:02;4.40;;;4.20;;
41719;SDS011;27405;53.316;-6.294;2022-10-16T03:07:28;1.60;;;1.60;;
41719;SDS011;27405;53.316;-6.294;2022-10-16T03:09:53;1.50;;;1.50;;
41719;SDS011;27405;53.316;-6.294;2022-10-16T03:12:20;1.80;;;1.80;;
41719;SDS011;27405;53.316;-6.294;2022-10-16T03:14:46;1.50;;;1.50;;
41719;SDS011;27405;53.316;-6.294;2022-10-16T03:17:12;1.52;;;1.52;;
41719;SDS011;27405;53.316;-6.294;2022-10-16T03:19:38;1.50;;;1.50;;
41719;SDS011;27405;53.316;-6.294;2022-10-16T03:22:04;2.13;;;2.03;;
41719;SDS011;27405;53.316;-6.294;2022-10-16T03:24:29;1.55;;;1.55;;
41719;SDS011;27405;53.316;-6.294;2022-10-16T03:26:55;2.10;;;2.00;;
41719;SDS011;27405;53.316;-6.294;2022-10-16T03:29:21;1.60;;;1.60;;
41719;SDS011;27405;53.316;-6.294;2022-10-16T03:31:46;1.73;;;1.70;;
41719;SDS011;27405;53.316;-6.294;2022-10-16T03:34:14;1.70;;;1.70;;
41719;SDS011;27405;53.316;-6.294;2022-10-16T03:36:40;1.50;;;1.50;;
41719;SDS011;27405;53.316;-6.294;2022-10-16T03:39:05;1.50;;;1.50;;
41719;SDS011;27405;53.316;-6.294;2022-10-16T03:41:31;1.70;;;1.70;;
41719;SDS011;27405;53.316;-6.294;2022-10-16T03:43:57;2.65;;;2.55;;
41719;SDS011;27405;53.316;-6.294;2022-10-16T03:46:22;1.80;;;1.80;;
41719;SDS011;27405;53.316;-6.294;2022-10-16T03:48:48;1.85;;;1.85;;
41719;SDS011;27405;53.316;-6.294;2022-10-16T03:51:14;1.58;;;1.58;;
41719;SDS011;27405;53.316;-6.294;2022-10-16T03:53:39;1.70;;;1.70;;
41719;SDS011;27405;53.316;-6.294;2022-10-16T03:56:05;1.77;;;1.77;;
41719;SDS011;27405;53.316;-6.294;2022-10-16T03:58:31;1.50;;;1.50;;
41719;SDS011;27405;53.316;-6.294;2022-10-16T04:00:56;1.60;;;1.60;;
41719;SDS011;27405;53.316;-6.294;2022-10-16T04:03:22;1.70;;;1.70;;
41719;SDS011;27405;53.316;-6.294;2022-10-16T04:05:48;1.80;;;1.80;;
41719;SDS011;27405;53.316;-6.294;2022-10-16T04:08:14;1.65;;;1.65;;
41719;SDS011;27405;53.316;-6.294;2022-10-16T04:10:42;2.15;;;2.05;;
41719;SDS011;27405;53.316;-6.294;2022-10-16T04:13:08;1.80;;;1.80;;
41719;SDS011;27405;53.316;-6.294;2022-10-16T04:15:34;1.70;;;1.70;;
41719;SDS011;27405;53.316;-6.294;2022-10-16T04:18:00;1.73;;;1.73;;
41719;SDS011;27405;53.316;-6.294;2022-10-16T04:20:25;1.90;;;1.90;;
41719;SDS011;27405;53.316;-6.294;2022-10-16T04:22:51;1.70;;;1.70;;
41719;SDS011;27405;53.316;-6.294;2022-10-16T04:25:17;1.60;;;1.60;;
41719;SDS011;27405;53.316;-6.294;2022-10-16T04:27:42;1.70;;;1.70;;
41719;SDS011;27405;53.316;-6.294;2022-10-16T04:30:08;9.98;;;8.23;;
41719;SDS011;27405;53.316;-6.294;2022-10-16T04:32:34;2.20;;;2.13;;
41719;SDS011;27405;53.316;-6.294;2022-10-16T04:35:00;1.80;;;1.80;;
41719;SDS011;27405;53.316;-6.294;2022-10-16T04:37:26;2.30;;;2.20;;
41719;SDS011;27405;53.316;-6.294;2022-10-16T04:39:52;2.15;;;2.05;;
41719;SDS011;27405;53.316;-6.294;2022-10-16T04:42:19;2.20;;;2.10;;
41719;SDS011;27405;53.316;-6.294;2022-10-16T04:44:45;1.70;;;1.70;;
41719;SDS011;27405;53.316;-6.294;2022-10-16T04:47:11;1.83;;;1.80;;
41719;SDS011;27405;53.316;-6.294;2022-10-16T04:49:37;1.60;;;1.60;;
41719;SDS011;27405;53.316;-6.294;2022-10-16T04:52:02;1.50;;;1.50;;
41719;SDS011;27405;53.316;-6.294;2022-10-16T04:54:28;1.70;;;1.70;;
41719;SDS011;27405;53.316;-6.294;2022-10-16T04:56:54;1.70;;;1.70;;
41719;SDS011;27405;53.316;-6.294;2022-10-16T04:59:20;1.60;;;1.60;;
41719;SDS011;27405;53.316;-6.294;2022-10-16T05:01:46;1.70;;;1.70;;
41719;SDS011;27405;53.316;-6.294;2022-10-16T05:04:11;2.17;;;2.08;;
41719;SDS011;27405;53.316;-6.294;2022-10-16T05:06:37;1.50;;;1.50;;
41719;SDS011;27405;53.316;-6.294;2022-10-16T05:09:04;1.55;;;1.55;;
41719;SDS011;27405;53.316;-6.294;2022-10-16T05:11:30;1.50;;;1.50;;
41719;SDS011;27405;53.316;-6.294;2022-10-16T05:13:56;1.50;;;1.50;;
41719;SDS011;27405;53.316;-6.294;2022-10-16T05:16:22;1.80;;;1.80;;
41719;SDS011;27405;53.316;-6.294;2022-10-16T05:18:48;1.70;;;1.70;;
41719;SDS011;27405;53.316;-6.294;2022-10-16T05:21:13;2.42;;;2.33;;
41719;SDS011;27405;53.316;-6.294;2022-10-16T05:23:39;1.60;;;1.60;;
41719;SDS011;27405;53.316;-6.294;2022-10-16T05:26:05;1.50;;;1.50;;
41719;SDS011;27405;53.316;-6.294;2022-10-16T05:28:30;1.40;;;1.40;;
41719;SDS011;27405;53.316;-6.294;2022-10-16T05:30:56;2.50;;;2.40;;
41719;SDS011;27405;53.316;-6.294;2022-10-16T05:33:24;1.40;;;1.40;;
41719;SDS011;27405;53.316;-6.294;2022-10-16T05:35:50;1.60;;;1.60;;
41719;SDS011;27405;53.316;-6.294;2022-10-16T05:38:16;1.35;;;1.35;;
41719;SDS011;27405;53.316;-6.294;2022-10-16T05:40:42;1.40;;;1.40;;
41719;SDS011;27405;53.316;-6.294;2022-10-16T05:43:15;1.40;;;1.40;;
41719;SDS011;27405;53.316;-6.294;2022-10-16T05:45:40;1.50;;;1.50;;
41719;SDS011;27405;53.316;-6.294;2022-10-16T05:48:06;1.63;;;1.63;;
41719;SDS011;27405;53.316;-6.294;2022-10-16T05:50:32;1.55;;;1.55;;
41719;SDS011;27405;53.316;-6.294;2022-10-16T05:52:57;1.60;;;1.60;;
41719;SDS011;27405;53.316;-6.294;2022-10-16T05:55:23;1.50;;;1.50;;
41719;SDS011;27405;53.316;-6.294;2022-10-16T05:57:49;1.40;;;1.40;;
41719;SDS011;27405;53.316;-6.294;2022-10-16T06:00:14;1.50;;;1.50;;
41719;SDS011;27405;53.316;-6.294;2022-10-16T06:02:40;1.40;;;1.40;;
41719;SDS011;27405;53.316;-6.294;2022-10-16T06:05:06;1.48;;;1.48;;
41719;SDS011;27405;53.316;-6.294;2022-10-16T06:07:34;1.40;;;1.40;;
41719;SDS011;27405;53.316;-6.294;2022-10-16T06:10:00;1.73;;;1.73;;
41719;SDS011;27405;53.316;-6.294;2022-10-16T06:12:27;1.50;;;1.50;;
41719;SDS011;27405;53.316;-6.294;2022-10-16T06:14:53;1.55;;;1.55;;
41719;SDS011;27405;53.316;-6.294;2022-10-16T06:17:19;1.40;;;1.40;;
41719;SDS011;27405;53.316;-6.294;2022-10-16T06:19:44;1.55;;;1.55;;
41719;SDS011;27405;53.316;-6.294;2022-10-16T06:22:10;1.40;;;1.40;;
41719;SDS011;27405;53.316;-6.294;2022-10-16T06:24:36;1.30;;;1.30;;
41719;SDS011;27405;53.316;-6.294;2022-10-16T06:27:02;1.50;;;1.50;;
41719;SDS011;27405;53.316;-6.294;2022-10-16T06:29:29;1.30;;;1.30;;
41719;SDS011;27405;53.316;-6.294;2022-10-16T06:31:54;1.60;;;1.60;;
41719;SDS011;27405;53.316;-6.294;2022-10-16T06:34:20;1.92;;;1.90;;
41719;SDS011;27405;53.316;-6.294;2022-10-16T06:36:45;1.88;;;1.85;;
41719;SDS011;27405;53.316;-6.294;2022-10-16T06:39:11;1.63;;;1.63;;
41719;SDS011;27405;53.316;-6.294;2022-10-16T06:41:37;1.60;;;1.60;;
41719;SDS011;27405;53.316;-6.294;2022-10-16T06:44:06;1.50;;;1.50;;
41719;SDS011;27405;53.316;-6.294;2022-10-16T06:46:32;3.45;;;3.28;;
41719;SDS011;27405;53.316;-6.294;2022-10-16T06:48:58;1.63;;;1.63;;
41719;SDS011;27405;53.316;-6.294;2022-10-16T06:51:24;2.35;;;2.25;;
41719;SDS011;27405;53.316;-6.294;2022-10-16T06:53:51;1.60;;;1.60;;
41719;SDS011;27405;53.316;-6.294;2022-10-16T06:58:45;1.20;;;1.20;;
41719;SDS011;27405;53.316;-6.294;2022-10-16T07:01:12;1.05;;;1.05;;
41719;SDS011;27405;53.316;-6.294;2022-10-16T07:03:39;1.20;;;1.20;;
41719;SDS011;27405;53.316;-6.294;2022-10-16T07:06:07;1.35;;;1.35;;
41719;SDS011;27405;53.316;-6.294;2022-10-16T07:08:34;1.23;;;1.23;;
41719;SDS011;27405;53.316;-6.294;2022-10-16T07:11:06;1.20;;;1.20;;
41719;SDS011;27405;53.316;-6.294;2022-10-16T07:13:43;1.20;;;1.20;;
41719;SDS011;27405;53.316;-6.294;2022-10-16T07:16:11;1.33;;;1.33;;
41719;SDS011;27405;53.316;-6.294;2022-10-16T07:18:39;2.88;;;2.75;;
41719;SDS011;27405;53.316;-6.294;2022-10-16T07:21:16;1.40;;;1.40;;
41719;SDS011;27405;53.316;-6.294;2022-10-16T07:26:10;1.55;;;1.55;;
41719;SDS011;27405;53.316;-6.294;2022-10-16T07:28:36;1.52;;;1.52;;
41719;SDS011;27405;53.316;-6.294;2022-10-16T07:31:03;1.42;;;1.42;;
41719;SDS011;27405;53.316;-6.294;2022-10-16T07:33:30;1.50;;;1.50;;
41719;SDS011;27405;53.316;-6.294;2022-10-16T07:35:56;1.50;;;1.50;;
41719;SDS011;27405;53.316;-6.294;2022-10-16T07:38:22;1.35;;;1.35;;
41719;SDS011;27405;53.316;-6.294;2022-10-16T07:40:47;1.60;;;1.60;;
41719;SDS011;27405;53.316;-6.294;2022-10-16T07:43:13;1.65;;;1.65;;
41719;SDS011;27405;53.316;-6.294;2022-10-16T07:45:48;1.50;;;1.50;;
41719;SDS011;27405;53.316;-6.294;2022-10-16T07:48:15;1.15;;;1.15;;
41719;SDS011;27405;53.316;-6.294;2022-10-16T07:50:41;1.20;;;1.20;;
41719;SDS011;27405;53.316;-6.294;2022-10-16T07:53:07;1.30;;;1.30;;
41719;SDS011;27405;53.316;-6.294;2022-10-16T07:55:34;1.10;;;1.10;;
41719;SDS011;27405;53.316;-6.294;2022-10-16T07:57:59;0.90;;;0.90;;
41719;SDS011;27405;53.316;-6.294;2022-10-16T08:00:25;1.25;;;1.25;;
41719;SDS011;27405;53.316;-6.294;2022-10-16T08:02:50;1.10;;;1.10;;
41719;SDS011;27405;53.316;-6.294;2022-10-16T08:05:16;1.20;;;1.20;;
41719;SDS011;27405;53.316;-6.294;2022-10-16T08:07:42;1.10;;;1.10;;
41719;SDS011;27405;53.316;-6.294;2022-10-16T08:10:14;1.20;;;1.20;;
41719;SDS011;27405;53.316;-6.294;2022-10-16T08:12:42;1.38;;;1.38;;
41719;SDS011;27405;53.316;-6.294;2022-10-16T08:15:08;1.10;;;1.10;;
41719;SDS011;27405;53.316;-6.294;2022-10-16T08:17:34;1.02;;;1.02;;
41719;SDS011;27405;53.316;-6.294;2022-10-16T08:20:00;1.10;;;1.10;;
41719;SDS011;27405;53.316;-6.294;2022-10-16T08:22:26;0.90;;;0.90;;
41719;SDS011;27405;53.316;-6.294;2022-10-16T08:24:52;0.90;;;0.90;;
41719;SDS011;27405;53.316;-6.294;2022-10-16T08:27:18;0.70;;;0.70;;
41719;SDS011;27405;53.316;-6.294;2022-10-16T08:29:43;0.70;;;0.70;;
41719;SDS011;27405;53.316;-6.294;2022-10-16T08:32:09;0.80;;;0.80;;
41719;SDS011;27405;53.316;-6.294;2022-10-16T08:34:35;0.90;;;0.90;;
41719;SDS011;27405;53.316;-6.294;2022-10-16T08:37:00;1.15;;;1.15;;
41719;SDS011;27405;53.316;-6.294;2022-10-16T08:39:27;0.93;;;0.93;;
41719;SDS011;27405;53.316;-6.294;2022-10-16T08:47:02;1.08;;;1.08;;
41719;SDS011;27405;53.316;-6.294;2022-10-16T08:49:35;0.70;;;0.70;;
41719;SDS011;27405;53.316;-6.294;2022-10-16T08:52:01;0.80;;;0.80;;
41719;SDS011;27405;53.316;-6.294;2022-10-16T08:54:37;3.80;;;3.60;;
41719;SDS011;27405;53.316;-6.294;2022-10-16T08:57:12;1.52;;;1.52;;
41719;SDS011;27405;53.316;-6.294;2022-10-16T08:59:43;0.93;;;0.93;;
41719;SDS011;27405;53.316;-6.294;2022-10-16T09:05:03;0.88;;;0.88;;
41719;SDS011;27405;53.316;-6.294;2022-10-16T09:07:38;0.88;;;0.88;;
41719;SDS011;27405;53.316;-6.294;2022-10-16T09:12:52;0.77;;;0.77;;
41719;SDS011;27405;53.316;-6.294;2022-10-16T09:23:06;1.00;;;1.00;;
41719;SDS011;27405;53.316;-6.294;2022-10-16T09:25:51;1.10;;;1.10;;
41719;SDS011;27405;53.316;-6.294;2022-10-16T09:28:19;0.95;;;0.95;;
41719;SDS011;27405;53.316;-6.294;2022-10-16T09:30:45;1.05;;;1.05;;
41719;SDS011;27405;53.316;-6.294;2022-10-16T09:33:13;1.10;;;1.10;;
41719;SDS011;27405;53.316;-6.294;2022-10-16T09:38:20;1.20;;;1.20;;
41719;SDS011;27405;53.316;-6.294;2022-10-16T09:40:51;1.10;;;1.10;;
41719;SDS011;27405;53.316;-6.294;2022-10-16T09:46:03;1.33;;;1.33;;
41719;SDS011;27405;53.316;-6.294;2022-10-16T09:48:31;0.90;;;0.90;;
41719;SDS011;27405;53.316;-6.294;2022-10-16T09:51:06;0.90;;;0.90;;
41719;SDS011;27405;53.316;-6.294;2022-10-16T09:53:49;0.90;;;0.90;;
41719;SDS011;27405;53.316;-6.294;2022-10-16T09:56:24;1.00;;;1.00;;
41719;SDS011;27405;53.316;-6.294;2022-10-16T09:58:52;0.80;;;0.80;;
41719;SDS011;27405;53.316;-6.294;2022-10-16T10:01:21;1.52;;;1.52;;
41719;SDS011;27405;53.316;-6.294;2022-10-16T10:03:51;0.90;;;0.90;;
41719;SDS011;27405;53.316;-6.294;2022-10-16T10:06:27;1.00;;;1.00;;
41719;SDS011;27405;53.316;-6.294;2022-10-16T10:16:47;0.88;;;0.88;;
41719;SDS011;27405;53.316;-6.294;2022-10-16T10:19:15;1.00;;;1.00;;
41719;SDS011;27405;53.316;-6.294;2022-10-16T10:21:42;1.00;;;1.00;;
41719;SDS011;27405;53.316;-6.294;2022-10-16T10:24:10;1.00;;;1.00;;
41719;SDS011;27405;53.316;-6.294;2022-10-16T10:26:36;0.90;;;0.90;;
41719;SDS011;27405;53.316;-6.294;2022-10-16T10:29:06;1.48;;;1.48;;
41719;SDS011;27405;53.316;-6.294;2022-10-16T10:40:34;0.90;;;0.90;;
41719;SDS011;27405;53.316;-6.294;2022-10-16T10:46:03;1.00;;;1.00;;
41719;SDS011;27405;53.316;-6.294;2022-10-16T11:03:06;0.90;;;0.90;;
41719;SDS011;27405;53.316;-6.294;2022-10-16T11:07:55;1.98;;;1.88;;
41719;SDS011;27405;53.316;-6.294;2022-10-16T11:10:44;1.10;;;1.10;;
41719;SDS011;27405;53.316;-6.294;2022-10-16T11:15:53;1.00;;;1.00;;
41719;SDS011;27405;53.316;-6.294;2022-10-16T11:21:07;1.10;;;1.10;;
41719;SDS011;27405;53.316;-6.294;2022-10-16T11:23:39;0.93;;;0.93;;
41719;SDS011;27405;53.316;-6.294;2022-10-16T11:26:21;1.00;;;1.00;;
41719;SDS011;27405;53.316;-6.294;2022-10-16T11:28:54;0.90;;;0.90;;
41719;SDS011;27405;53.316;-6.294;2022-10-16T11:34:02;1.17;;;1.17;;
41719;SDS011;27405;53.316;-6.294;2022-10-16T11:36:44;1.10;;;1.10;;
41719;SDS011;27405;53.316;-6.294;2022-10-16T11:41:51;1.30;;;1.30;;
41719;SDS011;27405;53.316;-6.294;2022-10-16T11:49:45;1.10;;;1.10;;
41719;SDS011;27405;53.316;-6.294;2022-10-16T11:54:45;1.10;;;1.10;;
41719;SDS011;27405;53.316;-6.294;2022-10-16T11:57:24;1.10;;;1.10;;
41719;SDS011;27405;53.316;-6.294;2022-10-16T12:00:02;1.20;;;1.20;;
41719;SDS011;27405;53.316;-6.294;2022-10-16T12:02:50;1.40;;;1.40;;
41719;SDS011;27405;53.316;-6.294;2022-10-16T12:10:22;2.85;;;2.75;;
41719;SDS011;27405;53.316;-6.294;2022-10-16T12:12:50;1.30;;;1.30;;
41719;SDS011;27405;53.316;-6.294;2022-10-16T12:15:24;1.30;;;1.30;;
41719;SDS011;27405;53.316;-6.294;2022-10-16T12:17:52;1.20;;;1.20;;
41719;SDS011;27405;53.316;-6.294;2022-10-16T12:20:22;3.28;;;3.15;;
41719;SDS011;27405;53.316;-6.294;2022-10-16T12:25:23;1.08;;;1.08;;
41719;SDS011;27405;53.316;-6.294;2022-10-16T12:28:06;2.00;;;1.90;;
41719;SDS011;27405;53.316;-6.294;2022-10-16T12:30:56;1.00;;;1.00;;
41719;SDS011;27405;53.316;-6.294;2022-10-16T12:33:27;1.10;;;1.10;;
41719;SDS011;27405;53.316;-6.294;2022-10-16T12:35:56;1.10;;;1.10;;
41719;SDS011;27405;53.316;-6.294;2022-10-16T12:41:02;1.30;;;1.30;;
41719;SDS011;27405;53.316;-6.294;2022-10-16T12:51:23;1.02;;;1.02;;
41719;SDS011;27405;53.316;-6.294;2022-10-16T12:53:59;1.30;;;1.30;;
41719;SDS011;27405;53.316;-6.294;2022-10-16T12:56:41;1.60;;;1.60;;
41719;SDS011;27405;53.316;-6.294;2022-10-16T13:07:29;1.17;;;1.17;;
41719;SDS011;27405;53.316;-6.294;2022-10-16T13:10:27;1.20;;;1.20;;
41719;SDS011;27405;53.316;-6.294;2022-10-16T13:22:06;1.10;;;1.10;;
41719;SDS011;27405;53.316;-6.294;2022-10-16T13:24:48;1.05;;;1.05;;
41719;SDS011;27405;53.316;-6.294;2022-10-16T13:29:47;1.10;;;1.10;;
41719;SDS011;27405;53.316;-6.294;2022-10-16T13:32:33;1.20;;;1.20;;
41719;SDS011;27405;53.316;-6.294;2022-10-16T13:34:59;1.20;;;1.20;;
41719;SDS011;27405;53.316;-6.294;2022-10-16T13:37:26;1.50;;;1.50;;
41719;SDS011;27405;53.316;-6.294;2022-10-16T13:40:02;1.20;;;1.20;;
41719;SDS011;27405;53.316;-6.294;2022-10-16T13:42:42;1.35;;;1.35;;
41719;SDS011;27405;53.316;-6.294;2022-10-16T13:45:16;1.30;;;1.30;;
41719;SDS011;27405;53.316;-6.294;2022-10-16T13:47:44;1.33;;;1.33;;
41719;SDS011;27405;53.316;-6.294;2022-10-16T13:50:17;1.00;;;1.00;;
41719;SDS011;27405;53.316;-6.294;2022-10-16T13:52:43;1.15;;;1.15;;
41719;SDS011;27405;53.316;-6.294;2022-10-16T13:55:10;0.90;;;0.90;;
41719;SDS011;27405;53.316;-6.294;2022-10-16T13:57:36;1.27;;;1.27;;
41719;SDS011;27405;53.316;-6.294;2022-10-16T14:00:02;1.20;;;1.20;;
41719;SDS011;27405;53.316;-6.294;2022-10-16T14:02:35;1.30;;;1.30;;
41719;SDS011;27405;53.316;-6.294;2022-10-16T14:05:04;1.02;;;1.02;;
41719;SDS011;27405;53.316;-6.294;2022-10-16T14:07:34;1.00;;;1.00;;
41719;SDS011;27405;53.316;-6.294;2022-10-16T14:10:03;1.02;;;1.02;;
41719;SDS011;27405;53.316;-6.294;2022-10-16T14:12:44;1.10;;;1.10;;
41719;SDS011;27405;53.316;-6.294;2022-10-16T14:15:16;1.00;;;1.00;;
41719;SDS011;27405;53.316;-6.294;2022-10-16T14:17:44;1.10;;;1.10;;
41719;SDS011;27405;53.316;-6.294;2022-10-16T14:20:14;1.13;;;1.13;;
41719;SDS011;27405;53.316;-6.294;2022-10-16T14:22:43;1.00;;;1.00;;
41719;SDS011;27405;53.316;-6.294;2022-10-16T14:30:55;0.90;;;0.90;;
41719;SDS011;27405;53.316;-6.294;2022-10-16T14:33:31;1.40;;;1.40;;
41719;SDS011;27405;53.316;-6.294;2022-10-16T14:38:36;1.20;;;1.20;;
41719;SDS011;27405;53.316;-6.294;2022-10-16T14:41:04;1.10;;;1.10;;
41719;SDS011;27405;53.316;-6.294;2022-10-16T14:43:37;1.10;;;1.10;;
41719;SDS011;27405;53.316;-6.294;2022-10-16T14:46:14;1.10;;;1.10;;
41719;SDS011;27405;53.316;-6.294;2022-10-16T14:48:43;0.88;;;0.88;;
41719;SDS011;27405;53.316;-6.294;2022-10-16T14:51:14;0.80;;;0.80;;
41719;SDS011;27405;53.316;-6.294;2022-10-16T14:56:09;1.38;;;1.38;;
41719;SDS011;27405;53.316;-6.294;2022-10-16T14:58:42;1.45;;;1.45;;
41719;SDS011;27405;53.316;-6.294;2022-10-16T15:01:08;1.40;;;1.40;;
41719;SDS011;27405;53.316;-6.294;2022-10-16T15:03:36;1.70;;;1.70;;
41719;SDS011;27405;53.316;-6.294;2022-10-16T15:06:02;1.40;;;1.40;;
41719;SDS011;27405;53.316;-6.294;2022-10-16T15:08:28;1.70;;;1.70;;
41719;SDS011;27405;53.316;-6.294;2022-10-16T15:10:54;1.60;;;1.60;;
41719;SDS011;27405;53.316;-6.294;2022-10-16T15:13:20;1.40;;;1.40;;
41719;SDS011;27405;53.316;-6.294;2022-10-16T15:15:46;1.40;;;1.40;;
41719;SDS011;27405;53.316;-6.294;2022-10-16T15:18:14;1.30;;;1.30;;
41719;SDS011;27405;53.316;-6.294;2022-10-16T15:20:44;1.40;;;1.40;;
41719;SDS011;27405;53.316;-6.294;2022-10-16T15:23:16;1.30;;;1.30;;
41719;SDS011;27405;53.316;-6.294;2022-10-16T15:28:14;1.45;;;1.45;;
41719;SDS011;27405;53.316;-6.294;2022-10-16T15:30:41;1.40;;;1.40;;
41719;SDS011;27405;53.316;-6.294;2022-10-16T15:33:13;1.60;;;1.60;;
41719;SDS011;27405;53.316;-6.294;2022-10-16T15:35:41;2.88;;;2.80;;
41719;SDS011;27405;53.316;-6.294;2022-10-16T15:38:11;2.40;;;2.30;;
41719;SDS011;27405;53.316;-6.294;2022-10-16T15:40:37;1.40;;;1.40;;
41719;SDS011;27405;53.316;-6.294;2022-10-16T15:43:04;1.20;;;1.20;;
41719;SDS011;27405;53.316;-6.294;2022-10-16T15:45:29;1.20;;;1.20;;
41719;SDS011;27405;53.316;-6.294;2022-10-16T15:47:55;1.27;;;1.27;;
41719;SDS011;27405;53.316;-6.294;2022-10-16T15:50:20;1.30;;;1.30;;
41719;SDS011;27405;53.316;-6.294;2022-10-16T15:52:46;1.40;;;1.40;;
41719;SDS011;27405;53.316;-6.294;2022-10-16T15:55:12;1.30;;;1.30;;
41719;SDS011;27405;53.316;-6.294;2022-10-16T15:57:39;1.20;;;1.20;;
41719;SDS011;27405;53.316;-6.294;2022-10-16T16:00:08;1.30;;;1.30;;
41719;SDS011;27405;53.316;-6.294;2022-10-16T16:02:37;1.30;;;1.30;;
41719;SDS011;27405;53.316;-6.294;2022-10-16T16:05:03;1.20;;;1.20;;
41719;SDS011;27405;53.316;-6.294;2022-10-16T16:07:32;1.25;;;1.25;;
41719;SDS011;27405;53.316;-6.294;2022-10-16T16:09:59;1.30;;;1.30;;
41719;SDS011;27405;53.316;-6.294;2022-10-16T16:12:24;273.65;;;258.92;;
41719;SDS011;27405;53.316;-6.294;2022-10-16T16:14:50;1236.45;;;999.90;;
41719;SDS011;27405;53.316;-6.294;2022-10-16T16:17:16;1055.38;;;985.80;;
41719;SDS011;27405;53.316;-6.294;2022-10-16T16:19:42;1277.10;;;999.90;;
41719;SDS011;27405;53.316;-6.294;2022-10-16T16:22:08;1344.25;;;999.90;;
41719;SDS011;27405;53.316;-6.294;2022-10-16T16:24:33;1223.60;;;999.90;;
41719;SDS011;27405;53.316;-6.294;2022-10-16T16:26:59;1203.00;;;999.90;;
41719;SDS011;27405;53.316;-6.294;2022-10-16T16:29:25;1099.80;;;999.90;;
41719;SDS011;27405;53.316;-6.294;2022-10-16T16:31:50;1014.17;;;945.83;;
41719;SDS011;27405;53.316;-6.294;2022-10-16T16:34:22;864.95;;;807.88;;
41719;SDS011;27405;53.316;-6.294;2022-10-16T16:36:49;875.05;;;817.28;;
41719;SDS011;27405;53.316;-6.294;2022-10-16T16:39:15;783.22;;;730.78;;
41719;SDS011;27405;53.316;-6.294;2022-10-16T16:41:41;939.58;;;876.63;;
41719;SDS011;27405;53.316;-6.294;2022-10-16T16:44:07;1074.63;;;999.78;;
41719;SDS011;27405;53.316;-6.294;2022-10-16T16:46:35;1138.72;;;999.90;;
41719;SDS011;27405;53.316;-6.294;2022-10-16T16:49:02;1189.78;;;999.90;;
41719;SDS011;27405;53.316;-6.294;2022-10-16T16:51:28;1073.50;;;999.08;;
41719;SDS011;27405;53.316;-6.294;2022-10-16T16:53:54;1076.65;;;999.90;;
41719;SDS011;27405;53.316;-6.294;2022-10-16T16:56:21;949.03;;;886.72;;
41719;SDS011;27405;53.316;-6.294;2022-10-16T16:58:48;1065.38;;;992.75;;
41719;SDS011;27405;53.316;-6.294;2022-10-16T17:01:15;1104.88;;;999.90;;
41719;SDS011;27405;53.316;-6.294;2022-10-16T17:03:42;1137.45;;;999.90;;
41719;SDS011;27405;53.316;-6.294;2022-10-16T17:06:09;858.90;;;802.97;;
41719;SDS011;27405;53.316;-6.294;2022-10-16T17:08:37;1179.80;;;999.90;;
41719;SDS011;27405;53.316;-6.294;2022-10-16T17:11:03;1181.43;;;999.90;;
41719;SDS011;27405;53.316;-6.294;2022-10-16T17:13:31;1058.25;;;986.92;;
41719;SDS011;27405;53.316;-6.294;2022-10-16T17:16:02;1193.97;;;999.90;;